Time;durP1;ratioP1;P1;durP2;ratioP2;P2;SDS_P1;SDS_P2;PMS_P1;PMS_P2;Temp;Humidity;BMP_temperature;BMP_pressure;BME280_temperature;BME280_humidity;BME280_pressure;Samples;Min_cycle;Max_cycle;Signal;HPM_P1;HPM_P2
2022/05/03 00:00:20;;;;;;;2.92;2.15;;;;;;;;;;4231706;33;20101;-71
2022/05/03 00:34:10;;;;;;;3.83;2.45;;;;;;;;;;4351141;28;20105;-62
2022/05/03 00:36:36;;;;;;;4.25;2.12;;;;;;;;;;4231559;33;20089;-62
2022/05/03 00:39:03;;;;;;;3.22;2.22;;;;;;;;;;4231608;33;20104;-62
2022/05/03 00:41:47;;;;;;;5.12;3.03;;;;;;;;;;4231797;33;20116;-62
2022/05/03 00:44:55;;;;;;;4.55;2.20;;;;;;;;;;4231542;33;20101;-60
2022/05/03 00:48:06;;;;;;;2.55;2.03;;;;;;;;;;4231611;33;20117;-62
2022/05/03 00:50:42;;;;;;;2.72;2.20;;;;;;;;;;4173839;34;20207;-62
2022/05/03 00:53:24;;;;;;;3.25;2.62;;;;;;;;;;4224202;33;20147;-62
2022/05/03 00:56:08;;;;;;;3.30;2.10;;;;;;;;;;4231902;33;20093;-60
2022/05/03 00:59:13;;;;;;;5.35;2.10;;;;;;;;;;4231959;33;20189;-60
2022/05/03 01:01:48;;;;;;;2.67;2.12;;;;;;;;;;4174069;34;20222;-60
2022/05/03 01:04:26;;;;;;;6.62;2.17;;;;;;;;;;4223270;33;20448;-62
2022/05/03 01:07:00;;;;;;;4.10;2.30;;;;;;;;;;4231792;33;20120;-62
2022/05/03 01:10:05;;;;;;;5.65;2.17;;;;;;;;;;4231395;33;20136;-64
2022/05/03 01:12:42;;;;;;;4.95;2.83;;;;;;;;;;4217104;33;20204;-63
2022/05/03 01:15:10;;;;;;;4.55;2.20;;;;;;;;;;4233748;33;20116;-64
2022/05/03 01:18:10;;;;;;;5.12;2.20;;;;;;;;;;4233596;33;20116;-64
2022/05/03 01:20:50;;;;;;;3.15;2.10;;;;;;;;;;4233503;33;20105;-63
2022/05/03 01:23:54;;;;;;;7.95;2.37;;;;;;;;;;4221078;33;20104;-64
2022/05/03 01:26:38;;;;;;;5.20;2.53;;;;;;;;;;4211625;33;20153;-60
2022/05/03 01:29:32;;;;;;;3.78;2.35;;;;;;;;;;4233586;33;20184;-60
2022/05/03 01:32:00;;;;;;;5.70;2.45;;;;;;;;;;4233412;33;20124;-60
2022/05/03 01:34:27;;;;;;;2.90;2.17;;;;;;;;;;4233302;33;20184;-61
2022/05/03 01:36:53;;;;;;;5.32;2.47;;;;;;;;;;4233719;33;20144;-60
2022/05/03 01:39:44;;;;;;;5.15;2.83;;;;;;;;;;4233509;33;20442;-60
2022/05/03 01:42:32;;;;;;;4.72;2.42;;;;;;;;;;4233309;33;20112;-60
2022/05/03 01:45:07;;;;;;;7.53;2.45;;;;;;;;;;4233506;33;20468;-60
2022/05/03 01:48:09;;;;;;;5.72;2.10;;;;;;;;;;4233316;33;20101;-60
2022/05/03 01:50:42;;;;;;;2.70;2.15;;;;;;;;;;4231837;33;20090;-60
2022/05/03 01:53:38;;;;;;;6.50;2.50;;;;;;;;;;4231926;33;20229;-60
2022/05/03 01:56:29;;;;;;;6.43;2.37;;;;;;;;;;4231793;33;20177;-60
2022/05/03 01:59:11;;;;;;;5.70;2.37;;;;;;;;;;4233115;33;20465;-60
2022/05/03 02:01:40;;;;;;;5.90;2.78;;;;;;;;;;4231987;33;20186;-60
2022/05/03 02:04:33;;;;;;;6.40;2.60;;;;;;;;;;4233044;33;20114;-60
2022/05/03 02:07:06;;;;;;;9.95;2.70;;;;;;;;;;4233341;33;20212;-60
2022/05/03 02:09:44;;;;;;;3.60;2.60;;;;;;;;;;4233083;33;20185;-60
2022/05/03 02:12:18;;;;;;;4.03;2.53;;;;;;;;;;4233140;33;20110;-60
2022/05/03 02:15:02;;;;;;;3.45;2.33;;;;;;;;;;4233212;33;20117;-60
2022/05/03 02:17:34;;;;;;;3.55;2.10;;;;;;;;;;4233355;33;20151;-60
2022/05/03 02:20:28;;;;;;;4.45;2.10;;;;;;;;;;4232960;33;20094;-60
2022/05/03 02:23:13;;;;;;;3.47;2.45;;;;;;;;;;4231240;33;20094;-60
2022/05/03 02:25:46;;;;;;;4.37;2.30;;;;;;;;;;4231791;33;20197;-61
2022/05/03 02:28:24;;;;;;;4.50;2.53;;;;;;;;;;4228510;33;20593;-60
2022/05/03 02:30:51;;;;;;;4.65;2.30;;;;;;;;;;4204211;34;20101;-60
2022/05/03 02:33:25;;;;;;;3.95;2.30;;;;;;;;;;4220203;33;20568;-60
2022/05/03 02:35:55;;;;;;;2.67;2.17;;;;;;;;;;4211505;33;20286;-59
2022/05/03 02:38:29;;;;;;;7.93;2.80;;;;;;;;;;4205313;34;20133;-60
2022/05/03 02:40:55;;;;;;;4.05;2.12;;;;;;;;;;4205086;34;20602;-60
2022/05/03 02:43:25;;;;;;;6.40;2.20;;;;;;;;;;4203408;34;20220;-60
2022/05/03 02:45:57;;;;;;;5.85;2.62;;;;;;;;;;4205117;34;20104;-60
2022/05/03 02:48:36;;;;;;;4.62;2.47;;;;;;;;;;4205119;34;20474;-60
2022/05/03 02:51:03;;;;;;;3.70;2.10;;;;;;;;;;4203795;34;20189;-60
2022/05/03 02:53:44;;;;;;;3.53;2.20;;;;;;;;;;4222684;33;20108;-60
2022/05/03 02:56:12;;;;;;;4.03;2.33;;;;;;;;;;4232825;33;20098;-60
2022/05/03 02:59:13;;;;;;;5.05;2.30;;;;;;;;;;4233111;33;20592;-60
2022/05/03 03:02:17;;;;;;;6.97;2.20;;;;;;;;;;4220871;33;20102;-60
2022/05/03 03:05:05;;;;;;;4.35;2.62;;;;;;;;;;4218239;33;20112;-60
2022/05/03 03:07:58;;;;;;;6.22;2.72;;;;;;;;;;4218789;33;20117;-60
2022/05/03 03:10:48;;;;;;;6.93;2.78;;;;;;;;;;4218567;33;20193;-61
2022/05/03 03:13:20;;;;;;;9.27;2.75;;;;;;;;;;4218779;34;20120;-60
2022/05/03 03:15:47;;;;;;;5.87;2.33;;;;;;;;;;4218796;33;20109;-60
2022/05/03 03:18:14;;;;;;;5.22;2.37;;;;;;;;;;4218618;33;20117;-59
2022/05/03 03:20:53;;;;;;;4.78;2.17;;;;;;;;;;4218370;34;20117;-59
2022/05/03 03:23:21;;;;;;;5.93;2.42;;;;;;;;;;4217190;34;20469;-60
2022/05/03 03:25:48;;;;;;;6.35;3.00;;;;;;;;;;4218464;33;20520;-60
2022/05/03 03:28:18;;;;;;;10.57;2.60;;;;;;;;;;4218458;33;20132;-60
2022/05/03 03:30:44;;;;;;;3.22;2.47;;;;;;;;;;4216937;33;20458;-59
2022/05/03 03:33:12;;;;;;;7.30;2.12;;;;;;;;;;4219350;33;20205;-60
2022/05/03 03:35:39;;;;;;;4.75;2.17;;;;;;;;;;4232310;33;20527;-59
2022/05/03 03:38:06;;;;;;;4.45;2.40;;;;;;;;;;4219477;33;20152;-59
2022/05/03 03:40:32;;;;;;;4.00;2.28;;;;;;;;;;4219197;33;20155;-59
2022/05/03 03:42:58;;;;;;;5.22;2.17;;;;;;;;;;4232320;33;20125;-59
2022/05/03 03:45:24;;;;;;;4.97;2.12;;;;;;;;;;4232188;33;20227;-59
2022/05/03 03:47:50;;;;;;;5.85;2.12;;;;;;;;;;4232366;33;20131;-60
2022/05/03 03:50:17;;;;;;;7.68;2.50;;;;;;;;;;4219341;33;20619;-59
2022/05/03 03:52:44;;;;;;;4.03;2.20;;;;;;;;;;4219191;33;20098;-60
2022/05/03 03:55:12;;;;;;;3.55;2.10;;;;;;;;;;4232138;33;20469;-59
2022/05/03 03:57:38;;;;;;;3.17;2.00;;;;;;;;;;4232109;33;20442;-60
2022/05/03 04:00:09;;;;;;;4.43;2.17;;;;;;;;;;4232359;33;20127;-60
2022/05/03 04:02:36;;;;;;;4.80;2.37;;;;;;;;;;4219330;33;20105;-60
2022/05/03 04:05:03;;;;;;;3.90;2.17;;;;;;;;;;4232054;33;20089;-60
2022/05/03 04:07:29;;;;;;;6.20;2.20;;;;;;;;;;4232144;33;20112;-60
2022/05/03 04:09:55;;;;;;;6.55;2.10;;;;;;;;;;4231967;33;20208;-60
2022/05/03 04:12:21;;;;;;;6.00;2.30;;;;;;;;;;4231958;33;20208;-60
2022/05/03 04:14:47;;;;;;;5.70;2.12;;;;;;;;;;4232057;33;20096;-60
2022/05/03 04:17:13;;;;;;;5.00;2.15;;;;;;;;;;4231986;33;20098;-59
2022/05/03 04:19:39;;;;;;;8.02;2.10;;;;;;;;;;4226385;33;20107;-59
2022/05/03 04:22:28;;;;;;;6.85;2.55;;;;;;;;;;4225907;33;20109;-60
2022/05/03 04:24:54;;;;;;;5.68;2.87;;;;;;;;;;4231679;33;20501;-60
2022/05/03 04:27:20;;;;;;;2.70;2.20;;;;;;;;;;4231646;33;20128;-59
2022/05/03 04:29:48;;;;;;;3.30;2.25;;;;;;;;;;4231753;33;20106;-59
2022/05/03 04:32:14;;;;;;;2.92;2.20;;;;;;;;;;4218814;33;20132;-59
2022/05/03 04:34:40;;;;;;;3.25;2.62;;;;;;;;;;4231746;33;20204;-59
2022/05/03 04:37:06;;;;;;;7.18;2.50;;;;;;;;;;4225687;33;20205;-59
2022/05/03 04:39:32;;;;;;;3.83;2.28;;;;;;;;;;4217215;33;20098;-60
2022/05/03 04:41:58;;;;;;;6.70;2.33;;;;;;;;;;4209509;34;20100;-61
2022/05/03 04:44:25;;;;;;;4.47;2.60;;;;;;;;;;4217873;34;20121;-61
2022/05/03 04:46:50;;;;;;;2.92;2.40;;;;;;;;;;4206926;34;20427;-60
2022/05/03 04:49:16;;;;;;;6.45;2.40;;;;;;;;;;4206662;34;20100;-61
2022/05/03 04:51:42;;;;;;;8.07;2.58;;;;;;;;;;4219680;34;20111;-60
2022/05/03 04:54:08;;;;;;;2.90;2.25;;;;;;;;;;4218100;34;20109;-60
2022/05/03 04:56:35;;;;;;;7.20;2.70;;;;;;;;;;4211921;34;20220;-59
2022/05/03 04:59:02;;;;;;;6.18;3.47;;;;;;;;;;4206139;34;20133;-60
2022/05/03 05:01:29;;;;;;;4.72;2.20;;;;;;;;;;4210225;34;20116;-63
2022/05/03 05:03:55;;;;;;;6.68;2.30;;;;;;;;;;4216061;34;20097;-60
2022/05/03 05:06:21;;;;;;;6.32;2.87;;;;;;;;;;4197826;34;20458;-59
2022/05/03 05:08:48;;;;;;;6.32;2.85;;;;;;;;;;4200881;33;20141;-60
2022/05/03 05:11:14;;;;;;;5.20;2.35;;;;;;;;;;4225145;33;20117;-60
2022/05/03 05:13:41;;;;;;;5.43;2.37;;;;;;;;;;4222562;33;20120;-60
2022/05/03 05:16:07;;;;;;;5.07;2.40;;;;;;;;;;4232325;33;20127;-60
2022/05/03 05:18:34;;;;;;;5.37;2.83;;;;;;;;;;4232053;33;20137;-62
2022/05/03 05:21:00;;;;;;;4.47;2.33;;;;;;;;;;4232990;33;20152;-61
2022/05/03 05:23:26;;;;;;;4.18;2.37;;;;;;;;;;4233299;33;20343;-60
2022/05/03 05:25:52;;;;;;;3.30;2.45;;;;;;;;;;4220149;33;20180;-61
2022/05/03 05:28:19;;;;;;;5.07;2.62;;;;;;;;;;4231757;33;20106;-63
2022/05/03 05:30:46;;;;;;;4.87;2.47;;;;;;;;;;4212583;34;20179;-59
2022/05/03 05:33:13;;;;;;;4.75;2.25;;;;;;;;;;4233045;33;20123;-61
2022/05/03 05:35:42;;;;;;;4.20;2.67;;;;;;;;;;4232409;33;20136;-61
2022/05/03 05:38:08;;;;;;;2.80;2.30;;;;;;;;;;4218312;33;20563;-61
2022/05/03 05:40:34;;;;;;;3.03;2.20;;;;;;;;;;4231666;33;20112;-62
2022/05/03 05:43:01;;;;;;;5.62;2.70;;;;;;;;;;4232394;33;20131;-61
2022/05/03 05:45:28;;;;;;;3.95;2.33;;;;;;;;;;4219355;33;20217;-62
2022/05/03 05:47:56;;;;;;;7.05;2.55;;;;;;;;;;4232675;33;20109;-61
2022/05/03 05:50:23;;;;;;;3.22;2.40;;;;;;;;;;4233340;33;20228;-62
2022/05/03 05:55:35;;;;;;;4.53;2.15;;;;;;;;;;4233362;33;20517;-61
2022/05/03 05:58:01;;;;;;;3.80;2.53;;;;;;;;;;4232174;33;20120;-62
2022/05/03 06:00:27;;;;;;;3.15;2.33;;;;;;;;;;4220352;33;20105;-62
2022/05/03 06:02:53;;;;;;;4.75;2.37;;;;;;;;;;4233203;33;20136;-61
2022/05/03 06:05:18;;;;;;;5.00;2.95;;;;;;;;;;4233105;33;20125;-61
2022/05/03 06:07:44;;;;;;;11.60;2.58;;;;;;;;;;4233116;33;20104;-61
2022/05/03 06:10:10;;;;;;;4.55;2.62;;;;;;;;;;4233413;33;20209;-62
2022/05/03 06:12:36;;;;;;;7.25;2.50;;;;;;;;;;4233133;33;20439;-61
2022/05/03 06:15:03;;;;;;;6.40;2.50;;;;;;;;;;4232692;33;20177;-61
2022/05/03 06:17:29;;;;;;;6.82;2.67;;;;;;;;;;4233146;33;20122;-61
2022/05/03 06:19:55;;;;;;;4.50;2.33;;;;;;;;;;4220130;33;20177;-61
2022/05/03 06:22:21;;;;;;;4.03;2.47;;;;;;;;;;4233128;33;20188;-62
2022/05/03 06:24:47;;;;;;;4.37;2.50;;;;;;;;;;4233179;33;20176;-61
2022/05/03 06:27:16;;;;;;;4.32;2.60;;;;;;;;;;4233230;33;20097;-61
2022/05/03 06:29:42;;;;;;;5.85;2.60;;;;;;;;;;4233238;33;20100;-62
2022/05/03 06:32:10;;;;;;;3.87;3.10;;;;;;;;;;4232800;33;20117;-62
2022/05/03 06:34:39;;;;;;;8.05;3.53;;;;;;;;;;4219915;33;20534;-62
2022/05/03 06:37:06;;;;;;;6.35;2.65;;;;;;;;;;4232806;33;20215;-62
2022/05/03 06:39:35;;;;;;;4.85;2.40;;;;;;;;;;4219735;33;20121;-62
2022/05/03 06:42:04;;;;;;;4.93;2.35;;;;;;;;;;4220091;33;20091;-61
2022/05/03 06:44:30;;;;;;;4.10;2.40;;;;;;;;;;4219857;33;20117;-61
2022/05/03 06:46:56;;;;;;;9.73;2.62;;;;;;;;;;4232978;33;20573;-61
2022/05/03 06:49:22;;;;;;;8.82;3.15;;;;;;;;;;4232898;33;20554;-61
2022/05/03 06:51:48;;;;;;;5.75;2.85;;;;;;;;;;4232979;33;20539;-62
2022/05/03 06:54:14;;;;;;;3.37;2.62;;;;;;;;;;4219596;33;20484;-61
2022/05/03 06:56:40;;;;;;;3.37;2.50;;;;;;;;;;4232689;33;20204;-61
2022/05/03 06:59:08;;;;;;;5.80;2.83;;;;;;;;;;4232642;33;20095;-62
2022/05/03 07:01:35;;;;;;;4.45;2.50;;;;;;;;;;4232603;33;20096;-62
2022/05/03 07:04:01;;;;;;;6.22;2.90;;;;;;;;;;4232653;33;20212;-60
2022/05/03 07:06:28;;;;;;;4.57;2.60;;;;;;;;;;4232617;33;20113;-61
2022/05/03 07:08:54;;;;;;;4.12;2.65;;;;;;;;;;4232418;33;20124;-62
2022/05/03 07:11:20;;;;;;;3.75;2.45;;;;;;;;;;4232562;33;20105;-62
2022/05/03 07:13:48;;;;;;;4.68;2.42;;;;;;;;;;4232683;33;20144;-61
2022/05/03 07:16:14;;;;;;;4.95;2.78;;;;;;;;;;4232632;33;20090;-62
2022/05/03 07:24:10;;;;;;;11.98;2.97;;;;;;;;;;4221272;33;20113;-62
2022/05/03 07:26:37;;;;;;;14.55;2.78;;;;;;;;;;4232275;33;20117;-62
2022/05/03 07:29:04;;;;;;;3.05;2.40;;;;;;;;;;4232392;33;20192;-63
2022/05/03 07:31:31;;;;;;;8.77;2.60;;;;;;;;;;4232427;33;20112;-62
2022/05/03 07:33:57;;;;;;;3.87;2.22;;;;;;;;;;4232655;33;20108;-62
2022/05/03 07:36:23;;;;;;;7.43;2.60;;;;;;;;;;4232435;33;20135;-63
2022/05/03 07:38:49;;;;;;;2.47;1.90;;;;;;;;;;4232482;33;20121;-62
2022/05/03 07:41:16;;;;;;;7.18;2.80;;;;;;;;;;4232371;33;20212;-62
2022/05/03 07:43:43;;;;;;;3.87;2.80;;;;;;;;;;4232396;33;20441;-62
2022/05/03 07:46:09;;;;;;;3.85;2.35;;;;;;;;;;4232350;33;20103;-63
2022/05/03 07:48:35;;;;;;;6.90;2.65;;;;;;;;;;4232268;33;20117;-62
2022/05/03 07:51:01;;;;;;;9.10;3.12;;;;;;;;;;4232243;33;20117;-62
2022/05/03 07:53:27;;;;;;;6.03;3.00;;;;;;;;;;4219062;33;20100;-62
2022/05/03 07:55:53;;;;;;;3.42;2.45;;;;;;;;;;4232255;33;20127;-62
2022/05/03 07:58:20;;;;;;;5.78;3.10;;;;;;;;;;4232238;33;20119;-61
2022/05/03 08:00:48;;;;;;;6.25;2.78;;;;;;;;;;4207770;33;20109;-62
2022/05/03 08:03:14;;;;;;;4.70;2.50;;;;;;;;;;4232175;33;20436;-61
2022/05/03 08:05:41;;;;;;;4.43;2.40;;;;;;;;;;4219201;33;20105;-61
2022/05/03 08:08:07;;;;;;;8.00;3.25;;;;;;;;;;4231894;33;20477;-61
2022/05/03 08:10:33;;;;;;;14.73;3.15;;;;;;;;;;4232057;33;20521;-61
2022/05/03 08:12:59;;;;;;;4.32;2.45;;;;;;;;;;4231958;33;20120;-62
2022/05/03 08:15:25;;;;;;;9.93;2.85;;;;;;;;;;4232099;33;20112;-61
2022/05/03 08:17:51;;;;;;;6.43;2.78;;;;;;;;;;4232096;33;20105;-61
2022/05/03 08:20:17;;;;;;;8.32;2.22;;;;;;;;;;4232838;33;20109;-61
2022/05/03 08:22:43;;;;;;;8.15;2.87;;;;;;;;;;4234074;33;20196;-61
2022/05/03 08:25:10;;;;;;;4.05;2.42;;;;;;;;;;4234017;33;20093;-61
2022/05/03 08:27:38;;;;;;;21.42;4.10;;;;;;;;;;4234187;33;20113;-62
2022/05/03 08:30:05;;;;;;;14.40;2.97;;;;;;;;;;4234130;33;20200;-63
2022/05/03 08:32:31;;;;;;;5.62;2.60;;;;;;;;;;4233864;33;20109;-62
2022/05/03 08:34:57;;;;;;;4.82;2.65;;;;;;;;;;4234440;33;20453;-60
2022/05/03 08:42:52;;;;;;;3.77;2.23;;;;;;;;;;4233986;33;20128;-60
2022/05/03 08:45:19;;;;;;;10.75;3.00;;;;;;;;;;4234081;33;20169;-61
2022/05/03 08:47:49;;;;;;;13.00;3.35;;;;;;;;;;4233736;33;20129;-61
2022/05/03 08:50:22;;;;;;;9.00;2.67;;;;;;;;;;4234133;33;20128;-61
2022/05/03 08:53:00;;;;;;;10.77;2.90;;;;;;;;;;4233772;33;20125;-61
2022/05/03 08:55:27;;;;;;;6.00;2.35;;;;;;;;;;4234154;33;20112;-63
2022/05/03 08:57:53;;;;;;;8.63;3.47;;;;;;;;;;4233896;33;20120;-63
2022/05/03 09:00:20;;;;;;;5.82;2.30;;;;;;;;;;4220924;33;20096;-61
2022/05/03 09:02:51;;;;;;;7.55;2.40;;;;;;;;;;4220854;33;20134;-62
2022/05/03 09:05:18;;;;;;;5.90;3.25;;;;;;;;;;4234054;33;20477;-62
2022/05/03 09:07:52;;;;;;;4.68;2.97;;;;;;;;;;4233941;33;20120;-62
2022/05/03 09:10:25;;;;;;;11.77;2.50;;;;;;;;;;4220980;33;20524;-62
2022/05/03 09:12:54;;;;;;;5.30;2.30;;;;;;;;;;4233513;33;20128;-62
2022/05/03 09:15:30;;;;;;;17.27;3.62;;;;;;;;;;4233671;33;20147;-62
2022/05/03 09:17:57;;;;;;;16.35;2.60;;;;;;;;;;4220590;33;20608;-62
2022/05/03 09:26:10;;;;;;;6.10;2.92;;;;;;;;;;4233536;33;20242;-62
2022/05/03 09:28:43;;;;;;;5.60;2.42;;;;;;;;;;4233513;33;20105;-62
2022/05/03 09:31:09;;;;;;;2.83;2.42;;;;;;;;;;4233388;33;20131;-62
2022/05/03 09:33:37;;;;;;;7.30;2.50;;;;;;;;;;4233700;33;20537;-62
2022/05/03 09:36:12;;;;;;;8.90;3.10;;;;;;;;;;4233515;33;20207;-62
2022/05/03 09:38:51;;;;;;;4.05;3.00;;;;;;;;;;4233494;33;20636;-62
2022/05/03 09:41:17;;;;;;;16.58;3.85;;;;;;;;;;4233373;33;20100;-62
2022/05/03 09:44:03;;;;;;;3.10;2.35;;;;;;;;;;4233425;33;20208;-62
2022/05/03 09:46:30;;;;;;;3.00;1.90;;;;;;;;;;4233619;33;20193;-60
2022/05/03 09:48:56;;;;;;;7.00;2.45;;;;;;;;;;4233669;33;20113;-62
2022/05/03 09:51:24;;;;;;;5.12;2.90;;;;;;;;;;4233309;33;20128;-62
2022/05/03 09:54:00;;;;;;;7.72;2.90;;;;;;;;;;4220588;33;20105;-62
2022/05/03 09:56:28;;;;;;;5.90;2.35;;;;;;;;;;4220351;33;20155;-62
2022/05/03 09:59:03;;;;;;;10.68;2.50;;;;;;;;;;4233320;33;20200;-62
2022/05/03 10:01:30;;;;;;;10.52;2.80;;;;;;;;;;4220261;33;20105;-62
2022/05/03 10:03:57;;;;;;;4.35;2.75;;;;;;;;;;4220187;33;20101;-62
2022/05/03 10:06:23;;;;;;;8.38;2.50;;;;;;;;;;4233440;33;20113;-63
2022/05/03 10:08:49;;;;;;;5.22;2.30;;;;;;;;;;4220442;33;20217;-62
2022/05/03 10:11:19;;;;;;;5.85;2.53;;;;;;;;;;4220139;33;20113;-62
2022/05/03 10:13:45;;;;;;;2.70;2.37;;;;;;;;;;4233207;33;20113;-62
2022/05/03 10:21:55;;;;;;;14.32;3.58;;;;;;;;;;4222087;33;20188;-62
2022/05/03 10:24:21;;;;;;;8.90;2.55;;;;;;;;;;4233145;33;20117;-62
2022/05/03 10:27:05;;;;;;;2.65;2.15;;;;;;;;;;4233043;33;20096;-62
2022/05/03 10:29:36;;;;;;;12.32;2.70;;;;;;;;;;4233056;33;20098;-62
2022/05/03 10:32:08;;;;;;;2.97;2.10;;;;;;;;;;4233212;33;20108;-65
2022/05/03 10:34:40;;;;;;;6.00;2.30;;;;;;;;;;4196953;33;20141;-61
2022/05/03 10:37:07;;;;;;;6.50;2.62;;;;;;;;;;4232805;33;20508;-61
2022/05/03 10:39:33;;;;;;;6.00;2.67;;;;;;;;;;4232978;33;20197;-62
2022/05/03 10:42:02;;;;;;;3.78;2.37;;;;;;;;;;4232823;33;20115;-62
2022/05/03 10:44:56;;;;;;;8.77;2.55;;;;;;;;;;4232081;33;20094;-62
2022/05/03 10:47:49;;;;;;;2.40;1.60;;;;;;;;;;4232933;33;20109;-62
2022/05/03 10:50:21;;;;;;;8.10;2.65;;;;;;;;;;4226755;33;20089;-63
2022/05/03 10:52:56;;;;;;;4.93;2.40;;;;;;;;;;4233123;33;20113;-62
2022/05/03 10:55:23;;;;;;;4.25;2.10;;;;;;;;;;4232740;33;20603;-63
2022/05/03 10:58:25;;;;;;;23.38;3.60;;;;;;;;;;4232747;33;20912;-63
2022/05/03 11:01:01;;;;;;;3.45;2.30;;;;;;;;;;4219818;33;20144;-63
2022/05/03 11:03:27;;;;;;;6.57;1.95;;;;;;;;;;4232448;33;20111;-62
2022/05/03 11:09:05;;;;;;;5.90;2.92;;;;;;;;;;4232765;33;20093;-63
2022/05/03 11:11:42;;;;;;;2.85;1.70;;;;;;;;;;4219511;33;20109;-62
2022/05/03 11:14:22;;;;;;;5.97;2.90;;;;;;;;;;4232583;33;20453;-64
2022/05/03 11:17:08;;;;;;;4.00;2.53;;;;;;;;;;4232853;33;20096;-62
2022/05/03 11:19:36;;;;;;;3.50;2.60;;;;;;;;;;4232578;33;20121;-64
2022/05/03 11:22:11;;;;;;;8.02;2.83;;;;;;;;;;4232609;33;20473;-66
2022/05/03 11:24:41;;;;;;;;;;;;;;;;;;4233091;33;20200;-63
2022/05/03 11:27:09;;;;;;;9.60;2.33;;;;;;;;;;4232658;33;19973;-63
2022/05/03 11:29:42;;;;;;;8.43;2.80;;;;;;;;;;4219802;33;20097;-63
2022/05/03 11:32:09;;;;;;;10.10;2.65;;;;;;;;;;4219373;33;20117;-64
2022/05/03 11:34:36;;;;;;;3.83;2.30;;;;;;;;;;4232356;33;20509;-63
2022/05/03 11:37:03;;;;;;;5.57;2.58;;;;;;;;;;4219381;33;20111;-61
2022/05/03 11:39:29;;;;;;;5.43;2.70;;;;;;;;;;4232191;33;20116;-61
2022/05/03 11:41:56;;;;;;;3.28;2.30;;;;;;;;;;4232528;33;20129;-62
2022/05/03 11:44:22;;;;;;;13.75;2.80;;;;;;;;;;4232053;33;20092;-61
2022/05/03 11:46:49;;;;;;;3.60;2.45;;;;;;;;;;4232292;33;20109;-61
2022/05/03 11:49:16;;;;;;;8.93;3.37;;;;;;;;;;4232246;33;20206;-61
2022/05/03 11:57:22;;;;;;;3.97;2.42;;;;;;;;;;4232514;33;20204;-61
2022/05/03 11:59:50;;;;;;;8.50;4.12;;;;;;;;;;4232399;33;20144;-62
2022/05/03 12:02:18;;;;;;;6.00;2.85;;;;;;;;;;4232112;33;20520;-62
2022/05/03 12:05:16;;;;;;;6.00;2.67;;;;;;;;;;4231985;33;20119;-62
2022/05/03 12:07:54;;;;;;;4.87;2.20;;;;;;;;;;4232220;33;20121;-62
2022/05/03 12:10:20;;;;;;;8.55;2.50;;;;;;;;;;4227733;33;20082;-63
2022/05/03 12:12:48;;;;;;;10.13;3.30;;;;;;;;;;4219464;33;20123;-61
2022/05/03 12:15:24;;;;;;;3.83;2.40;;;;;;;;;;4206270;33;20077;-62
2022/05/03 12:17:59;;;;;;;4.25;2.35;;;;;;;;;;4177995;34;20107;-61
2022/05/03 12:20:29;;;;;;;6.55;2.97;;;;;;;;;;4202648;34;20193;-65
2022/05/03 12:23:33;;;;;;;6.65;2.28;;;;;;;;;;4191448;34;20513;-60
2022/05/03 12:26:01;;;;;;;4.75;2.40;;;;;;;;;;4188988;34;20123;-61
2022/05/03 12:28:37;;;;;;;7.80;2.80;;;;;;;;;;4216025;34;20125;-60
2022/05/03 12:31:05;;;;;;;7.32;3.28;;;;;;;;;;4202142;34;20109;-61
2022/05/03 12:33:32;;;;;;;5.55;3.00;;;;;;;;;;4210103;34;20450;-59
2022/05/03 12:35:59;;;;;;;3.75;2.25;;;;;;;;;;4216278;34;20536;-60
2022/05/03 12:38:26;;;;;;;5.25;4.00;;;;;;;;;;4216410;34;20117;-60
2022/05/03 12:40:53;;;;;;;8.07;5.12;;;;;;;;;;4215731;34;20199;-59
2022/05/03 12:43:21;;;;;;;8.55;3.10;;;;;;;;;;4215675;34;20109;-60
2022/05/03 12:46:05;;;;;;;6.70;3.15;;;;;;;;;;4214961;33;20527;-58
2022/05/03 12:48:36;;;;;;;7.25;3.08;;;;;;;;;;4213443;33;20109;-59
2022/05/03 12:51:03;;;;;;;6.82;3.50;;;;;;;;;;4226569;33;20216;-59
2022/05/03 12:53:32;;;;;;;6.95;2.40;;;;;;;;;;4227115;33;20208;-59
2022/05/03 12:58:44;;;;;;;3.87;2.47;;;;;;;;;;4229920;33;20090;-60
2022/05/03 13:01:11;;;;;;;3.35;2.33;;;;;;;;;;4231536;33;20505;-58
2022/05/03 13:03:41;;;;;;;3.03;2.17;;;;;;;;;;4218690;33;20149;-58
2022/05/03 13:06:08;;;;;;;4.55;1.90;;;;;;;;;;4232103;33;20509;-58
2022/05/03 13:08:34;;;;;;;5.62;2.42;;;;;;;;;;4209098;33;20109;-58
2022/05/03 13:11:00;;;;;;;4.43;3.03;;;;;;;;;;4233781;33;20097;-59
2022/05/03 13:13:26;;;;;;;4.50;2.83;;;;;;;;;;4233840;33;20120;-60
2022/05/03 13:15:52;;;;;;;4.03;2.53;;;;;;;;;;4221093;33;20517;-59
2022/05/03 13:18:18;;;;;;;3.83;3.17;;;;;;;;;;4233931;33;20196;-63
2022/05/03 13:20:44;;;;;;;3.30;2.60;;;;;;;;;;4220610;33;20460;-60
2022/05/03 13:23:11;;;;;;;3.85;1.90;;;;;;;;;;4220486;33;20109;-59
2022/05/03 13:25:37;;;;;;;4.65;2.42;;;;;;;;;;4233338;33;20120;-58
2022/05/03 13:28:05;;;;;;;4.62;2.35;;;;;;;;;;4220829;33;20097;-59
2022/05/03 13:30:35;;;;;;;2.30;1.90;;;;;;;;;;4220874;33;20192;-60
2022/05/03 13:33:01;;;;;;;9.23;2.97;;;;;;;;;;4197208;33;20510;-59
2022/05/03 13:40:56;;;;;;;4.75;2.20;;;;;;;;;;4233356;33;20096;-59
2022/05/03 13:43:22;;;;;;;5.20;3.40;;;;;;;;;;4220196;33;20109;-59
2022/05/03 13:45:49;;;;;;;3.22;2.12;;;;;;;;;;4220287;33;20812;-60
2022/05/03 13:48:16;;;;;;;9.43;4.47;;;;;;;;;;4233130;33;20136;-60
2022/05/03 13:50:43;;;;;;;6.30;3.15;;;;;;;;;;4233309;33;20526;-60
2022/05/03 13:53:11;;;;;;;5.75;2.83;;;;;;;;;;4233457;33;20139;-60
2022/05/03 13:55:38;;;;;;;6.10;3.05;;;;;;;;;;4232892;33;20193;-60
2022/05/03 13:58:09;;;;;;;3.37;2.12;;;;;;;;;;4233068;33;20525;-60
2022/05/03 14:00:38;;;;;;;10.18;5.25;;;;;;;;;;4233128;33;20089;-61
2022/05/03 14:03:07;;;;;;;18.08;7.97;;;;;;;;;;4233174;33;20453;-60
2022/05/03 14:05:34;;;;;;;14.50;4.80;;;;;;;;;;4217701;33;20129;-57
2022/05/03 14:08:00;;;;;;;6.28;3.00;;;;;;;;;;4236466;33;20117;-57
2022/05/03 14:10:26;;;;;;;3.05;2.00;;;;;;;;;;4232144;33;20117;-58
2022/05/03 14:12:52;;;;;;;9.73;5.30;;;;;;;;;;4231969;33;20125;-58
2022/05/03 14:15:18;;;;;;;7.72;3.35;;;;;;;;;;4231410;33;20090;-59
2022/05/03 14:17:44;;;;;;;6.03;2.67;;;;;;;;;;4230113;33;20220;-59
2022/05/03 14:20:11;;;;;;;5.65;2.40;;;;;;;;;;4229851;33;20144;-58
2022/05/03 14:22:38;;;;;;;4.20;2.55;;;;;;;;;;4230472;33;20216;-58
2022/05/03 14:25:09;;;;;;;12.68;6.68;;;;;;;;;;4207069;33;20156;-58
2022/05/03 14:27:36;;;;;;;10.13;5.05;;;;;;;;;;4231219;33;20132;-58
2022/05/03 14:30:04;;;;;;;6.00;3.20;;;;;;;;;;4231944;33;20120;-59
2022/05/03 14:32:30;;;;;;;9.80;5.53;;;;;;;;;;4232726;33;20664;-57
2022/05/03 14:34:56;;;;;;;1.17;1.17;;;;;;;;;;4243032;33;20126;-59
2022/05/03 14:37:22;;;;;;;10.82;2.33;;;;;;;;;;4232745;33;20196;-59
2022/05/03 14:39:48;;;;;;;3.85;2.60;;;;;;;;;;4232778;33;20185;-59
2022/05/03 14:42:14;;;;;;;4.90;2.22;;;;;;;;;;4219497;33;20177;-59
2022/05/03 14:44:40;;;;;;;3.85;2.65;;;;;;;;;;4232209;33;20116;-59
2022/05/03 14:47:07;;;;;;;8.65;2.25;;;;;;;;;;4232527;33;20168;-61
2022/05/03 14:49:34;;;;;;;2.17;1.52;;;;;;;;;;4228032;33;20125;-60
2022/05/03 14:52:05;;;;;;;2.83;2.12;;;;;;;;;;4230555;33;20117;-61
2022/05/03 14:54:33;;;;;;;1.75;1.65;;;;;;;;;;4230854;33;20560;-60
2022/05/03 15:05:14;;;;;;;1.73;1.62;;;;;;;;;;4219984;33;20106;-63
2022/05/03 15:07:40;;;;;;;1.77;1.67;;;;;;;;;;4231474;33;20129;-62
2022/05/03 15:10:06;;;;;;;11.50;2.20;;;;;;;;;;4229345;33;20208;-63
2022/05/03 15:12:32;;;;;;;1.77;1.67;;;;;;;;;;4217837;33;20096;-62
2022/05/03 15:14:58;;;;;;;2.42;2.00;;;;;;;;;;4227354;33;20113;-62
2022/05/03 15:17:24;;;;;;;2.97;2.35;;;;;;;;;;4229896;33;20125;-64
2022/05/03 15:19:50;;;;;;;8.40;2.17;;;;;;;;;;4231183;33;20145;-62
2022/05/03 15:22:16;;;;;;;2.33;1.50;;;;;;;;;;4231048;33;20223;-62
2022/05/03 15:24:42;;;;;;;2.03;1.80;;;;;;;;;;4228964;33;20508;-62
2022/05/03 15:27:10;;;;;;;6.75;2.40;;;;;;;;;;4217885;33;20153;-62
2022/05/03 15:29:38;;;;;;;4.75;2.40;;;;;;;;;;4230776;33;20536;-59
2022/05/03 15:32:29;;;;;;;5.90;3.42;;;;;;;;;;4228713;33;20553;-63
2022/05/03 15:34:57;;;;;;;5.95;2.50;;;;;;;;;;4230744;33;20196;-61
2022/05/03 15:37:23;;;;;;;4.47;2.58;;;;;;;;;;4217830;33;20112;-61
2022/05/03 15:39:54;;;;;;;9.20;4.20;;;;;;;;;;4231320;33;20125;-62
2022/05/03 15:42:21;;;;;;;11.27;3.87;;;;;;;;;;4231437;33;20201;-63
2022/05/03 15:44:51;;;;;;;12.82;6.80;;;;;;;;;;4231337;33;20112;-62
2022/05/03 15:47:21;;;;;;;9.13;5.82;;;;;;;;;;4218559;33;20128;-63
2022/05/03 15:49:48;;;;;;;10.40;4.05;;;;;;;;;;4231449;33;20548;-64
2022/05/03 15:52:16;;;;;;;5.30;3.47;;;;;;;;;;4229909;33;20104;-65
2022/05/03 15:54:42;;;;;;;7.07;2.95;;;;;;;;;;4218329;33;20113;-65
2022/05/03 15:57:08;;;;;;;3.05;2.33;;;;;;;;;;4216155;33;20182;-61
2022/05/03 15:59:36;;;;;;;4.47;2.30;;;;;;;;;;4229712;33;20124;-63
2022/05/03 16:02:06;;;;;;;7.97;3.70;;;;;;;;;;4227977;33;20132;-65
2022/05/03 16:04:32;;;;;;;9.13;2.97;;;;;;;;;;4229317;33;20454;-63
2022/05/03 16:06:59;;;;;;;3.50;2.55;;;;;;;;;;4217597;33;20235;-63
2022/05/03 16:09:25;;;;;;;11.27;3.47;;;;;;;;;;4227263;33;20117;-62
2022/05/03 16:11:51;;;;;;;6.60;2.95;;;;;;;;;;4230791;33;20176;-62
2022/05/03 16:14:17;;;;;;;6.28;2.55;;;;;;;;;;4228693;33;20136;-62
2022/05/03 16:16:43;;;;;;;3.65;2.97;;;;;;;;;;4230561;33;20113;-62
2022/05/03 16:19:09;;;;;;;7.25;2.70;;;;;;;;;;4230701;33;20131;-62
2022/05/03 16:21:35;;;;;;;7.18;2.35;;;;;;;;;;4229625;33;20133;-61
2022/05/03 16:24:01;;;;;;;3.70;2.50;;;;;;;;;;4229504;33;20116;-62